Time;durP1;ratioP1;P1;durP2;ratioP2;P2;SDS_P1;SDS_P2;PMS_P1;PMS_P2;Temp;Humidity;BMP_temperature;BMP_pressure;BME280_temperature;BME280_humidity;BME280_pressure;Samples;Min_cycle;Max_cycle;Signal;HPM_P1;HPM_P2
2022/01/09 00:02:02;;;;;;;;;5.00;2.00;;;;;7.15;69.77;99391.88;4939908;28;45465;-52
2022/01/09 00:04:28;;;;;;;;;7.00;2.00;;;;;7.04;69.57;99374.34;4939749;28;45486;-47
2022/01/09 00:06:53;;;;;;;;;1.50;1.00;;;;;7.28;69.85;99422.88;4966319;28;45431;-49
2022/01/09 00:09:19;;;;;;;;;1.00;1.00;;;;;7.14;70.34;99397.56;4975468;28;45565;-47
2022/01/09 00:11:44;;;;;;;;;4.00;1.75;;;;;7.33;70.13;99447.59;4977176;28;46059;-46
2022/01/09 00:14:10;;;;;;;;;6.50;2.00;;;;;7.28;69.83;99437.34;4976487;28;45360;-46
2022/01/09 00:16:35;;;;;;;;;2.50;1.00;;;;;7.29;70.11;99439.03;4976516;28;45213;-47
2022/01/09 00:19:01;;;;;;;;;6.50;1.00;;;;;7.26;69.60;99449.56;4959285;28;45558;-45
2022/01/09 00:21:26;;;;;;;;;1.75;1.75;;;;;7.27;69.98;99462.97;4976449;28;45667;-49
2022/01/09 00:23:52;;;;;;;;;3.00;3.00;;;;;7.25;69.95;99459.63;4976744;28;45271;-49
2022/01/09 00:26:18;;;;;;;;;3.00;2.00;;;;;7.01;69.29;99429.38;4976457;28;45275;-49
2022/01/09 00:28:43;;;;;;;;;3.00;0.75;;;;;7.14;70.50;99468.50;4959212;28;45484;-49
2022/01/09 00:31:09;;;;;;;;;5.00;0.75;;;;;6.80;69.55;99429.69;4975131;28;46979;-47
2022/01/09 00:33:34;;;;;;;;;10.75;4.50;;;;;7.12;70.17;99487.00;4966237;28;45605;-49
2022/01/09 00:36:00;;;;;;;;;9.50;2.50;;;;;7.09;70.37;99471.09;4968829;28;45234;-46
2022/01/09 00:38:25;;;;;;;;;2.00;1.75;;;;;7.15;70.39;99497.50;4975732;28;45142;-49
2022/01/09 00:40:51;;;;;;;;;3.00;1.25;;;;;7.14;70.05;99496.66;4959963;28;45407;-50
2022/01/09 00:43:16;;;;;;;;;4.00;2.50;;;;;7.14;69.65;99499.38;4976298;28;45312;-47
2022/01/09 00:45:42;;;;;;;;;4.50;1.00;;;;;7.10;69.89;99498.13;4975826;28;45310;-45
2022/01/09 00:48:08;;;;;;;;;1.00;1.00;;;;;7.10;70.01;99519.97;4959219;28;45171;-49
2022/01/09 00:50:36;;;;;;;;;6.00;3.00;;;;;7.08;70.12;99515.78;4975484;28;45428;-48
2022/01/09 00:53:05;;;;;;;;;0.60;0.60;;;;;7.04;69.11;99524.41;4958764;28;45440;-45
2022/01/09 00:55:31;;;;;;;;;6.00;3.00;;;;;7.08;69.41;99526.69;4974813;28;45349;-47
2022/01/09 00:57:56;;;;;;;;;2.00;1.00;;;;;7.04;69.06;99534.47;4958631;28;45334;-47
2022/01/09 01:00:22;;;;;;;;;0.25;0.25;;;;;7.04;68.77;99539.94;4975299;28;45438;-47
2022/01/09 01:02:48;;;;;;;;;3.00;1.00;;;;;7.02;68.77;99556.53;4974008;28;45822;-47
2022/01/09 01:05:14;;;;;;;;;1.25;1.25;;;;;7.03;67.84;99563.66;4958108;28;45444;-47
2022/01/09 01:07:39;;;;;;;;;1.00;1.00;;;;;6.98;67.94;99568.13;4942112;28;45600;-48
2022/01/09 01:10:05;;;;;;;;;1.00;1.00;;;;;6.85;68.02;99552.63;4975743;28;46883;-48
2022/01/09 01:12:32;;;;;;;;;2.75;2.00;;;;;7.06;68.32;99595.13;4975776;28;45282;-48
2022/01/09 01:14:57;;;;;;;;;2.20;1.00;;;;;6.82;68.49;99563.97;4975598;28;45296;-46
2022/01/09 01:17:23;;;;;;;;;9.00;3.00;;;;;7.03;67.75;99610.06;4975789;28;45695;-48
2022/01/09 01:19:49;;;;;;;;;1.00;1.00;;;;;7.01;68.27;99605.88;4975072;28;46474;-47
2022/01/09 01:22:14;;;;;;;;;3.25;0.00;;;;;6.99;68.28;99607.97;4975400;28;45222;-47
2022/01/09 01:24:41;;;;;;;;;3.00;1.75;;;;;6.71;67.56;99579.09;4975397;28;45325;-46
2022/01/09 01:27:06;;;;;;;;;2.20;2.00;;;;;6.81;68.71;99612.22;4976199;28;45319;-47
2022/01/09 01:29:32;;;;;;;;;2.75;0.25;;;;;6.87;67.44;99627.75;4974210;28;45321;-47
2022/01/09 01:31:58;;;;;;;;;2.00;2.00;;;;;6.77;68.56;99628.19;4973039;28;45377;-46
2022/01/09 01:34:23;;;;;;;;;2.00;0.50;;;;;6.81;68.88;99644.97;4975814;28;45396;-47
2022/01/09 01:36:49;;;;;;;;;5.00;1.00;;;;;6.79;68.85;99655.25;4975465;28;45429;-47
2022/01/09 01:39:14;;;;;;;;;0.00;0.00;;;;;6.85;69.15;99664.47;4975077;28;46161;-46
2022/01/09 01:41:40;;;;;;;;;1.00;1.00;;;;;6.79;69.49;99666.16;4974144;28;45794;-47
2022/01/09 01:44:10;;;;;;;;;1.00;1.00;;;;;6.81;69.03;99676.84;4957454;28;45331;-45
2022/01/09 01:46:36;;;;;;;;;2.00;0.80;;;;;6.86;69.76;99682.50;4974845;28;45348;-48
2022/01/09 01:49:01;;;;;;;;;2.00;1.00;;;;;6.84;69.51;99674.53;4975079;28;45459;-45
2022/01/09 01:51:27;;;;;;;;;5.00;0.75;;;;;6.84;69.91;99677.25;4974732;28;45456;-46
2022/01/09 01:53:55;;;;;;;;;7.50;1.00;;;;;6.84;69.09;99693.63;4975048;28;45429;-46
2022/01/09 01:56:21;;;;;;;;;3.40;1.40;;;;;6.87;69.49;99698.66;4973880;28;45653;-45
2022/01/09 01:58:47;;;;;;;;;3.60;2.00;;;;;6.64;69.43;99652.75;4975034;28;46893;-47
2022/01/09 02:01:13;;;;;;;;;0.60;0.60;;;;;6.94;69.22;99703.25;4974661;28;45280;-49
2022/01/09 02:03:38;;;;;;;;;3.00;1.75;;;;;6.93;68.42;99707.06;4975417;28;45319;-47
2022/01/09 02:06:04;;;;;;;;;1.25;1.25;;;;;6.90;68.34;99700.94;4975858;28;45538;-47
2022/01/09 02:08:31;;;;;;;;;0.75;0.75;;;;;6.94;68.73;99733.28;4957097;28;47236;-49
2022/01/09 02:10:57;;;;;;;;;5.60;1.00;;;;;6.96;68.45;99720.25;4975792;28;45508;-46
2022/01/09 02:13:22;;;;;;;;;1.00;0.25;;;;;6.97;69.72;99730.97;4957872;28;45381;-49
2022/01/09 02:15:48;;;;;;;;;0.50;0.50;;;;;7.01;69.20;99737.69;4977302;28;45356;-48
2022/01/09 02:18:20;;;;;;;;;0.60;0.60;;;;;7.05;68.99;99735.34;4960455;28;46893;-46
2022/01/09 02:20:47;;;;;;;;;1.40;1.00;;;;;6.81;67.65;99715.88;4978385;28;45410;-46
2022/01/09 02:23:14;;;;;;;;;0.40;0.00;;;;;6.94;68.04;99736.00;4961297;28;45234;-51
2022/01/09 02:25:41;;;;;;;;;1.40;1.40;;;;;6.93;68.38;99747.97;4977807;28;45422;-47
2022/01/09 02:28:07;;;;;;;;;3.00;2.20;;;;;6.93;68.02;99745.25;4978368;28;45749;-46
2022/01/09 02:30:32;;;;;;;;;0.00;0.00;;;;;6.85;67.68;99738.97;4960560;28;45588;-47
2022/01/09 02:33:02;;;;;;;;;0.25;0.00;;;;;6.89;66.87;99747.56;4960578;28;45272;-47
2022/01/09 02:35:28;;;;;;;;;0.00;0.00;;;;;6.86;66.86;99740.63;4978355;28;45435;-47
2022/01/09 02:37:53;;;;;;;;;1.00;1.00;;;;;6.81;65.78;99737.69;4960596;28;45516;-48
2022/01/09 02:40:19;;;;;;;;;0.00;0.00;;;;;6.82;66.15;99754.91;4978187;28;45644;-45
2022/01/09 02:42:44;;;;;;;;;0.00;0.00;;;;;6.79;65.38;99750.72;4978080;28;45558;-46
2022/01/09 02:45:10;;;;;;;;;0.00;0.00;;;;;6.62;66.45;99736.69;4978067;28;45666;-47
2022/01/09 02:47:37;;;;;;;;;0.75;0.75;;;;;6.58;67.11;99717.16;4960054;28;45374;-46
2022/01/09 02:50:13;;;;;;;;;1.00;0.00;;;;;6.88;67.64;99759.53;4960791;28;45416;-48
2022/01/09 02:52:49;;;;;;;;;1.00;0.00;;;;;6.85;67.92;99777.16;4976563;28;45386;-49
2022/01/09 02:55:15;;;;;;;;;2.00;0.00;;;;;6.63;68.04;99758.25;4962500;28;45560;-48
2022/01/09 02:57:42;;;;;;;;;0.00;0.00;;;;;6.80;68.36;99776.94;4960072;28;46589;-47
2022/01/09 03:00:09;;;;;;;;;0.00;0.00;;;;;6.75;67.45;99772.13;4959196;28;45487;-45
2022/01/09 03:02:35;;;;;;;;;1.80;0.60;;;;;6.67;67.86;99790.56;4969277;28;45431;-46
2022/01/09 03:05:00;;;;;;;;;0.00;0.00;;;;;6.57;68.15;99783.63;4975541;28;45351;-47
2022/01/09 03:07:26;;;;;;;;;0.75;0.75;;;;;6.59;68.97;99784.28;4948996;28;46538;-46
2022/01/09 03:09:51;;;;;;;;;1.00;1.00;;;;;6.64;68.12;99791.84;4977747;28;45303;-46
2022/01/09 03:12:17;;;;;;;;;1.75;0.00;;;;;6.69;68.26;99794.78;4977824;28;45505;-48
2022/01/09 03:14:43;;;;;;;;;1.50;0.00;;;;;6.66;68.35;99783.44;4976424;28;45553;-47
2022/01/09 03:17:08;;;;;;;;;0.75;0.00;;;;;6.72;67.93;99790.78;4977133;28;45433;-47
2022/01/09 03:19:34;;;;;;;;;0.00;0.00;;;;;6.72;67.84;99793.53;4977603;28;45425;-47
2022/01/09 03:21:59;;;;;;;;;5.75;1.25;;;;;6.61;67.58;99809.44;4977458;28;45344;-46
2022/01/09 03:24:25;;;;;;;;;4.00;0.00;;;;;6.23;68.47;99737.28;4977753;28;45296;-46
2022/01/09 03:26:50;;;;;;;;;1.00;0.75;;;;;6.61;68.26;99806.72;4959080;28;47235;-46
2022/01/09 03:29:16;;;;;;;;;0.75;0.00;;;;;6.64;67.76;99806.31;4959778;28;45385;-48
2022/01/09 03:31:41;;;;;;;;;0.50;0.25;;;;;6.30;67.86;99760.97;4977055;28;45382;-47
2022/01/09 03:34:07;;;;;;;;;0.00;0.00;;;;;6.58;67.43;99811.75;4977479;28;45274;-47
2022/01/09 03:36:33;;;;;;;;;3.50;1.25;;;;;6.57;67.69;99804.63;4959600;28;47735;-50
2022/01/09 03:38:58;;;;;;;;;0.25;0.25;;;;;6.62;68.50;99848.47;4959482;28;45482;-48
2022/01/09 03:41:24;;;;;;;;;0.50;0.00;;;;;6.59;68.61;99824.34;4977383;28;45385;-47
2022/01/09 03:43:49;;;;;;;;;4.25;2.00;;;;;6.57;69.47;99818.25;4977321;28;45438;-46
2022/01/09 03:46:15;;;;;;;;;1.00;1.00;;;;;6.64;69.77;99844.50;4977079;28;45438;-49
2022/01/09 03:48:40;;;;;;;;;1.00;1.00;;;;;6.71;70.91;99852.66;4959846;28;45412;-47
2022/01/09 03:51:06;;;;;;;;;0.25;0.25;;;;;6.77;70.78;99849.09;4976854;28;45351;-46
2022/01/09 03:53:32;;;;;;;;;2.00;2.00;;;;;6.72;70.69;99835.25;4977197;28;45620;-47
2022/01/09 03:55:58;;;;;;;;;1.75;1.75;;;;;6.71;70.50;99839.03;4975431;28;46201;-45
2022/01/09 03:58:23;;;;;;;;;2.80;1.20;;;;;6.85;70.74;99848.06;4975447;28;45457;-47
2022/01/09 04:00:49;;;;;;;;;2.50;1.00;;;;;6.74;68.91;99841.31;4976986;28;45394;-47
2022/01/09 04:03:14;;;;;;;;;0.25;0.00;;;;;6.78;69.40;99858.13;4976611;28;45561;-47
2022/01/09 04:05:42;;;;;;;;;0.00;0.00;;;;;6.62;69.48;99830.22;4976867;28;45241;-46
2022/01/09 04:08:07;;;;;;;;;1.40;0.00;;;;;6.58;68.01;99826.22;4976018;28;45166;-47
2022/01/09 04:10:40;;;;;;;;;2.00;1.00;;;;;6.79;69.72;99848.91;4977461;28;45696;-47
2022/01/09 04:13:05;;;;;;;;;0.80;0.80;;;;;6.79;69.81;99840.72;4977114;28;45542;-48
2022/01/09 04:15:31;;;;;;;;;2.75;1.50;;;;;6.77;69.82;99838.19;4976820;28;45946;-45
2022/01/09 04:17:57;;;;;;;;;0.00;0.00;;;;;6.40;68.54;99796.84;4976547;28;45435;-49
2022/01/09 04:20:27;;;;;;;;;0.75;0.00;;;;;6.63;69.02;99840.06;4976215;28;45691;-47
2022/01/09 04:22:52;;;;;;;;;0.00;0.00;;;;;6.63;69.97;99842.78;4976905;28;45463;-48
2022/01/09 04:25:18;;;;;;;;;6.25;2.00;;;;;6.23;69.66;99783.63;4976355;28;45980;-47
2022/01/09 04:27:44;;;;;;;;;4.50;1.00;;;;;6.62;69.94;99849.28;4976756;28;45421;-47
2022/01/09 04:30:10;;;;;;;;;2.40;0.40;;;;;6.59;69.88;99848.88;4976138;28;45228;-48
2022/01/09 04:32:35;;;;;;;;;2.00;0.25;;;;;6.56;69.61;99852.84;4976483;28;45330;-49
2022/01/09 04:35:01;;;;;;;;;0.50;0.50;;;;;6.60;70.28;99865.03;4976338;28;45422;-46
2022/01/09 04:37:27;;;;;;;;;0.00;0.00;;;;;6.40;69.46;99820.53;4975217;28;45355;-47
2022/01/09 04:39:54;;;;;;;;;2.75;1.00;;;;;6.49;70.01;99849.28;4976505;28;45422;-45
2022/01/09 04:42:23;;;;;;;;;1.20;0.60;;;;;6.54;70.80;99846.78;4958869;28;45475;-44
2022/01/09 04:44:49;;;;;;;;;1.00;0.00;;;;;6.37;70.53;99824.53;4975995;28;45969;-45
2022/01/09 04:47:16;;;;;;;;;1.00;1.00;;;;;6.60;70.64;99853.28;4975967;28;45474;-46
2022/01/09 04:49:44;;;;;;;;;1.00;1.00;;;;;6.59;70.24;99867.97;4976508;28;45371;-45
2022/01/09 04:52:14;;;;;;;;;0.80;0.00;;;;;6.59;70.53;99868.81;4976542;28;45535;-45
2022/01/09 04:54:39;;;;;;;;;1.40;0.00;;;;;6.48;71.00;99844.88;4976072;28;45340;-50
2022/01/09 04:57:05;;;;;;;;;1.00;0.00;;;;;6.70;70.84;99872.81;4976024;28;45328;-46
2022/01/09 04:59:31;;;;;;;;;0.25;0.25;;;;;6.66;70.21;99859.81;4975655;28;45482;-45
2022/01/09 05:01:56;;;;;;;;;0.00;0.00;;;;;6.65;70.37;99875.31;4976025;28;45284;-47
2022/01/09 05:04:22;;;;;;;;;0.00;0.00;;;;;6.54;70.65;99860.41;4975661;28;46589;-46
2022/01/09 05:06:47;;;;;;;;;2.50;1.25;;;;;6.53;70.39;99866.91;4975288;28;45376;-46
2022/01/09 05:09:13;;;;;;;;;4.50;2.00;;;;;6.56;70.97;99868.38;4958249;28;45365;-46
2022/01/09 05:11:38;;;;;;;;;0.75;0.75;;;;;6.57;71.46;99879.06;4976032;28;45697;-47
2022/01/09 05:14:04;;;;;;;;;0.00;0.00;;;;;6.59;70.74;99879.72;4974465;28;46891;-46
2022/01/09 05:16:29;;;;;;;;;1.25;0.00;;;;;6.60;71.52;99878.66;4975709;28;45308;-47
2022/01/09 05:19:05;;;;;;;;;1.00;1.00;;;;;6.61;72.06;99868.59;4975303;28;45389;-46
2022/01/09 05:21:30;;;;;;;;;1.00;0.00;;;;;6.38;71.71;99858.91;4975221;28;45458;-47
2022/01/09 05:23:56;;;;;;;;;5.00;0.00;;;;;6.20;72.57;99862.22;4975537;28;45503;-47
2022/01/09 05:26:21;;;;;;;;;0.00;0.00;;;;;6.23;72.76;99853.63;4975738;28;45509;-43
2022/01/09 05:28:47;;;;;;;;;4.25;1.00;;;;;6.33;72.27;99851.34;4975057;28;45328;-46
2022/01/09 05:31:12;;;;;;;;;1.00;0.25;;;;;6.33;72.10;99851.34;4975506;28;45586;-48
2022/01/09 05:33:38;;;;;;;;;2.00;0.00;;;;;6.31;73.22;99850.72;4974940;28;45457;-45
2022/01/09 05:36:04;;;;;;;;;1.50;1.50;;;;;6.29;73.01;99841.91;4975501;28;45353;-48
2022/01/09 05:38:29;;;;;;;;;2.00;1.00;;;;;5.97;72.43;99784.34;4957721;28;45427;-46
2022/01/09 05:40:54;;;;;;;;;0.00;0.00;;;;;6.39;72.05;99843.41;4975589;28;45537;-45
2022/01/09 05:43:20;;;;;;;;;1.75;1.75;;;;;6.42;72.47;99842.97;4975137;28;45591;-46
2022/01/09 05:45:46;;;;;;;;;2.25;1.25;;;;;6.31;72.15;99822.63;4974981;28;45372;-47
2022/01/09 05:48:11;;;;;;;;;1.00;1.00;;;;;6.44;72.52;99840.88;4973961;28;45386;-47
2022/01/09 05:50:37;;;;;;;;;2.25;0.00;;;;;5.88;71.81;99756.47;4976052;28;45486;-46
2022/01/09 05:53:02;;;;;;;;;0.00;0.00;;;;;6.31;72.01;99830.78;4961209;28;47127;-46
2022/01/09 05:55:28;;;;;;;;;1.25;0.00;;;;;6.35;72.09;99840.25;4978371;28;45364;-47
2022/01/09 05:57:53;;;;;;;;;5.00;1.00;;;;;6.36;71.90;99841.91;4978333;28;45415;-45
2022/01/09 06:00:19;;;;;;;;;5.50;3.00;;;;;6.37;72.38;99849.88;4978741;28;45337;-47
2022/01/09 06:02:44;;;;;;;;;1.00;1.00;;;;;6.39;72.32;99854.31;4979399;28;46455;-47
2022/01/09 06:05:10;;;;;;;;;2.75;1.00;;;;;6.37;71.97;99852.59;4977619;28;45376;-44
2022/01/09 06:07:39;;;;;;;;;1.00;1.00;;;;;6.30;72.21;99859.91;4978420;28;45403;-47
2022/01/09 06:10:05;;;;;;;;;2.00;0.20;;;;;6.16;71.38;99825.50;4978298;28;45674;-48
2022/01/09 06:12:30;;;;;;;;;5.60;1.20;;;;;6.39;72.51;99878.84;4960889;28;47761;-48
2022/01/09 06:14:56;;;;;;;;;3.00;0.00;;;;;6.42;72.53;99875.69;4978483;28;45320;-44
2022/01/09 06:17:21;;;;;;;;;1.00;0.00;;;;;6.43;72.28;99878.22;4961200;28;45325;-46
2022/01/09 06:19:47;;;;;;;;;3.00;0.75;;;;;6.40;71.59;99885.97;4978343;28;45541;-46
2022/01/09 06:22:17;;;;;;;;;1.50;1.00;;;;;6.32;72.29;99874.19;4960897;28;45439;-46
2022/01/09 06:24:52;;;;;;;;;1.00;1.00;;;;;6.45;72.28;99892.47;4978049;28;45382;-47
2022/01/09 06:27:18;;;;;;;;;1.00;1.00;;;;;6.43;71.99;99893.72;4978720;28;45933;-47
2022/01/09 06:29:44;;;;;;;;;5.25;0.25;;;;;6.43;71.66;99891.00;4960943;28;45412;-52
2022/01/09 06:32:09;;;;;;;;;0.00;0.00;;;;;6.44;72.11;99900.84;4977814;28;47013;-46
2022/01/09 06:34:35;;;;;;;;;0.50;0.25;;;;;6.05;71.15;99838.69;4960304;28;45410;-47
2022/01/09 06:37:01;;;;;;;;;3.50;0.75;;;;;6.44;71.79;99887.22;4960238;28;45326;-47
2022/01/09 06:39:26;;;;;;;;;0.50;0.50;;;;;6.30;71.01;99884.44;4977837;28;45340;-45
2022/01/09 06:41:52;;;;;;;;;2.00;1.75;;;;;6.07;70.83;99865.72;4978190;28;45336;-45
2022/01/09 06:44:17;;;;;;;;;1.00;1.00;;;;;6.16;72.37;99877.28;4977639;28;45441;-49
2022/01/09 06:46:43;;;;;;;;;2.00;0.00;;;;;6.39;71.63;99903.38;4977989;28;45391;-44
2022/01/09 06:49:09;;;;;;;;;4.50;1.00;;;;;6.40;71.63;99913.22;4977696;28;45348;-45
2022/01/09 06:51:35;;;;;;;;;0.00;0.00;;;;;6.35;71.71;99914.66;4976495;28;48389;-47
2022/01/09 06:54:00;;;;;;;;;1.00;1.00;;;;;6.41;72.11;99904.00;4959977;28;45453;-46
2022/01/09 06:56:26;;;;;;;;;1.50;0.50;;;;;6.24;72.10;99855.28;4976303;28;45312;-44
2022/01/09 06:58:51;;;;;;;;;3.25;0.00;;;;;6.40;71.66;99891.41;4977952;28;45342;-47
2022/01/09 07:01:17;;;;;;;;;0.00;0.00;;;;;6.40;71.35;99894.97;4975704;28;48858;-46
2022/01/09 07:03:42;;;;;;;;;0.00;0.00;;;;;6.31;71.80;99874.41;4960092;28;45259;-47
2022/01/09 07:06:08;;;;;;;;;1.00;0.00;;;;;6.43;72.28;99894.56;4960173;28;45372;-45
2022/01/09 07:08:34;;;;;;;;;0.00;0.00;;;;;6.43;71.39;99899.16;4978139;28;45503;-47
2022/01/09 07:11:01;;;;;;;;;0.00;0.00;;;;;6.44;71.48;99898.97;4977674;28;46252;-49
2022/01/09 07:13:26;;;;;;;;;1.80;0.00;;;;;6.42;72.33;99895.63;4953484;28;45470;-47
2022/01/09 07:15:52;;;;;;;;;0.25;0.25;;;;;6.31;72.55;99875.25;4997575;28;45286;-47
2022/01/09 07:18:17;;;;;;;;;0.00;0.00;;;;;6.46;72.07;99907.78;4997657;28;45285;-46
2022/01/09 07:20:43;;;;;;;;;2.00;0.75;;;;;6.25;72.48;99881.53;4995529;28;46666;-46
2022/01/09 07:23:08;;;;;;;;;0.75;0.75;;;;;6.47;72.30;99909.44;4997091;28;45486;-46
2022/01/09 07:25:34;;;;;;;;;1.25;0.25;;;;;6.42;73.29;99906.53;4979784;28;45798;-45
2022/01/09 07:27:59;;;;;;;;;3.25;2.00;;;;;6.37;73.59;99901.66;4998289;28;45340;-45
2022/01/09 07:30:27;;;;;;;;;0.50;0.50;;;;;6.42;72.91;99914.69;4995172;28;45447;-52
2022/01/09 07:32:53;;;;;;;;;0.60;0.00;;;;;6.42;73.12;99905.66;4997274;28;45416;-51
2022/01/09 07:35:19;;;;;;;;;1.75;0.75;;;;;6.20;73.16;99876.66;4995313;28;45435;-46
2022/01/09 07:37:44;;;;;;;;;0.00;0.00;;;;;6.47;73.48;99898.53;4997024;28;45425;-46
2022/01/09 07:40:10;;;;;;;;;1.00;0.00;;;;;6.54;73.59;99903.19;4996850;28;45382;-46
2022/01/09 07:42:36;;;;;;;;;0.00;0.00;;;;;6.56;73.68;99901.94;4996363;28;45388;-48
2022/01/09 07:45:01;;;;;;;;;1.00;1.00;;;;;6.62;74.25;99906.56;4996677;28;45407;-46
2022/01/09 07:47:27;;;;;;;;;1.00;1.00;;;;;6.46;73.07;99872.34;4996625;28;45489;-47
2022/01/09 07:49:52;;;;;;;;;1.25;1.00;;;;;6.45;73.22;99891.66;4996116;28;46816;-48
2022/01/09 07:52:18;;;;;;;;;2.00;1.00;;;;;6.61;73.75;99928.56;4996849;28;45615;-48
2022/01/09 07:54:43;;;;;;;;;1.00;0.00;;;;;6.65;73.95;99929.84;4996231;28;45433;-48
2022/01/09 07:57:09;;;;;;;;;0.75;0.00;;;;;6.63;74.15;99930.03;4997850;28;45373;-47
2022/01/09 07:59:34;;;;;;;;;3.75;2.25;;;;;6.61;74.19;99934.88;4995860;28;45369;-48
2022/01/09 08:02:00;;;;;;;;;1.00;1.00;;;;;6.63;74.01;99935.50;4977347;28;45406;-45
2022/01/09 08:04:26;;;;;;;;;4.00;1.00;;;;;6.64;73.34;99931.75;4976286;28;45453;-49
2022/01/09 08:06:51;;;;;;;;;1.50;1.00;;;;;6.56;74.40;99928.38;4976741;28;45288;-46
2022/01/09 08:09:17;;;;;;;;;5.75;2.25;;;;;6.47;73.98;99906.72;4976425;28;45929;-48
2022/01/09 08:11:42;;;;;;;;;0.50;0.50;;;;;6.37;73.07;99896.22;4976097;28;45342;-48
2022/01/09 08:14:08;;;;;;;;;3.25;3.25;;;;;6.31;74.22;99902.50;4975818;28;45416;-45
2022/01/09 08:16:33;;;;;;;;;4.75;3.00;;;;;6.39;73.97;99893.28;4964088;28;45308;-49
2022/01/09 08:18:59;;;;;;;;;5.25;2.00;;;;;6.45;73.72;99911.56;4963957;28;45558;-47
2022/01/09 08:21:24;;;;;;;;;4.50;2.50;;;;;6.49;72.81;99912.84;4975793;28;45342;-47
2022/01/09 08:23:50;;;;;;;;;1.75;1.50;;;;;6.47;72.85;99924.97;4975422;28;45257;-46
2022/01/09 08:26:16;;;;;;;;;12.75;7.75;;;;;6.43;73.54;99921.81;4976749;28;45632;-48
2022/01/09 08:28:44;;;;;;;;;3.80;1.00;;;;;6.47;73.06;99919.53;4942282;28;45404;-48
2022/01/09 08:31:17;;;;;;;;;15.20;12.40;;;;;6.46;72.88;99910.50;4976475;28;45389;-47
2022/01/09 08:33:42;;;;;;;;;10.00;8.40;;;;;6.50;73.52;99913.66;4958883;28;45377;-47
2022/01/09 08:36:08;;;;;;;;;14.50;11.50;;;;;6.53;73.43;99915.97;4976026;28;45676;-45
2022/01/09 08:38:33;;;;;;;;;10.00;7.00;;;;;6.32;73.56;99900.59;4976262;28;45301;-47
2022/01/09 08:41:00;;;;;;;;;9.75;6.00;;;;;6.49;73.54;99914.69;4972543;28;45333;-47
2022/01/09 08:43:25;;;;;;;;;17.60;11.80;;;;;6.53;73.95;99917.84;4974767;28;45451;-46
2022/01/09 08:45:51;;;;;;;;;4.25;4.25;;;;;6.49;73.45;99907.38;4990738;28;45412;-47
2022/01/09 08:48:17;;;;;;;;;5.25;2.00;;;;;6.49;74.42;99898.34;4976101;28;46120;-49
2022/01/09 08:50:43;;;;;;;;;0.25;0.25;;;;;6.07;72.82;99852.94;4914012;28;45533;-45
2022/01/09 08:53:08;;;;;;;;;0.00;0.00;;;;;6.28;73.72;99907.50;4977738;28;45498;-48
2022/01/09 08:55:34;;;;;;;;;1.00;1.00;;;;;6.19;73.77;99910.41;4975897;28;45370;-48
2022/01/09 08:57:59;;;;;;;;;0.00;0.00;;;;;6.17;73.94;99914.38;4974734;28;45439;-47
2022/01/09 09:00:25;;;;;;;;;1.00;1.00;;;;;6.17;73.74;99895.31;4975573;28;45387;-48
2022/01/09 09:02:51;;;;;;;;;0.40;0.40;;;;;5.65;73.57;99814.81;4958422;28;45517;-50
2022/01/09 09:05:16;;;;;;;;;1.75;0.75;;;;;6.21;73.72;99905.63;4976231;28;45230;-48
2022/01/09 09:07:42;;;;;;;;;1.00;1.00;;;;;6.21;74.23;99907.50;4975680;28;46354;-48
2022/01/09 09:10:08;;;;;;;;;0.00;0.00;;;;;6.29;73.47;99920.94;4974569;28;45364;-52
2022/01/09 09:12:34;;;;;;;;;0.00;0.00;;;;;6.43;73.84;99910.94;4976224;28;45356;-52
2022/01/09 09:15:00;;;;;;;;;0.00;0.00;;;;;6.45;72.89;99918.91;4974796;28;45343;-48
2022/01/09 09:17:27;;;;;;;;;1.60;0.60;;;;;6.50;74.13;99939.03;4954086;28;46859;-47
2022/01/09 09:19:52;;;;;;;;;0.80;0.40;;;;;6.51;74.03;99938.00;4994098;28;45555;-47
2022/01/09 09:22:18;;;;;;;;;1.50;0.50;;;;;6.53;74.45;99934.22;4991787;28;45410;-49
2022/01/09 09:24:43;;;;;;;;;0.50;0.00;;;;;6.58;74.67;99938.03;4964234;28;45400;-47
2022/01/09 09:27:09;;;;;;;;;0.00;0.00;;;;;6.64;75.02;99939.94;4949044;28;45502;-48
2022/01/09 09:29:34;;;;;;;;;4.00;1.00;;;;;6.67;74.87;99946.00;4961652;28;45481;-48
2022/01/09 09:32:00;;;;;;;;;1.25;0.75;;;;;6.64;74.31;99950.00;4941250;28;45425;-48
2022/01/09 09:34:26;;;;;;;;;1.75;1.75;;;;;6.74;74.69;99952.31;4938095;28;45559;-47
2022/01/09 09:36:55;;;;;;;;;1.00;1.00;;;;;6.48;74.08;99910.31;4966866;28;45387;-48
2022/01/09 09:39:21;;;;;;;;;1.00;1.00;;;;;6.58;74.15;99912.63;4935998;28;45529;-47
2022/01/09 09:41:46;;;;;;;;;1.25;1.25;;;;;6.76;74.97;99944.75;4967915;28;45503;-53
2022/01/09 09:44:13;;;;;;;;;2.50;0.75;;;;;6.84;73.84;99941.84;4972446;28;45863;-48
2022/01/09 09:46:39;;;;;;;;;1.00;1.00;;;;;6.75;73.51;99913.94;4972038;28;46216;-47
2022/01/09 09:49:04;;;;;;;;;1.00;1.00;;;;;6.83;73.60;99936.63;4971187;28;45418;-53
2022/01/09 09:51:32;;;;;;;;;2.00;1.00;;;;;6.80;73.86;99934.28;4971172;28;45363;-48
2022/01/09 09:53:58;;;;;;;;;1.20;0.80;;;;;6.75;73.84;99930.31;4970665;28;45674;-49
2022/01/09 09:56:24;;;;;;;;;6.50;2.00;;;;;6.95;73.13;99956.78;4971066;28;45448;-46
2022/01/09 09:58:50;;;;;;;;;1.25;0.75;;;;;7.01;73.43;99963.28;4971140;28;45514;-49
2022/01/09 10:01:23;;;;;;;;;1.20;1.20;;;;;6.99;72.31;99970.84;4971232;28;45469;-51
2022/01/09 10:03:59;;;;;;;;;2.00;1.00;;;;;7.00;73.38;99969.81;4971851;28;45569;-49
2022/01/09 10:06:40;;;;;;;;;0.00;0.00;;;;;6.87;72.50;99968.72;4969586;28;45594;-50
2022/01/09 10:09:13;;;;;;;;;2.00;1.00;;;;;6.20;72.27;99864.94;4971051;28;45769;-48
2022/01/09 10:11:53;;;;;;;;;1.60;1.60;;;;;6.97;72.93;99981.09;4953619;28;45419;-46
2022/01/09 10:14:28;;;;;;;;;0.00;0.00;;;;;7.02;72.55;99971.28;4971628;28;45531;-51
2022/01/09 10:17:16;;;;;;;;;0.60;0.00;;;;;6.90;72.58;99932.00;4946947;28;45586;-46
2022/01/09 10:19:53;;;;;;;;;5.60;2.20;;;;;6.99;72.70;99944.38;4963149;28;45521;-47
2022/01/09 10:22:23;;;;;;;;;2.80;0.00;;;;;7.01;72.50;99950.50;4954165;28;45482;-52
2022/01/09 10:24:49;;;;;;;;;0.00;0.00;;;;;6.93;72.44;99925.28;4971732;28;45451;-50
2022/01/09 10:27:34;;;;;;;;;1.00;1.00;;;;;7.11;72.01;99961.00;4969542;28;46312;-50
2022/01/09 10:30:01;;;;;;;;;2.00;0.60;;;;;6.85;71.96;99927.19;4952326;28;45567;-47
2022/01/09 10:32:28;;;;;;;;;1.40;1.00;;;;;7.10;72.15;99963.94;4953369;28;45827;-50
2022/01/09 10:35:06;;;;;;;;;1.00;0.00;;;;;7.18;72.49;99988.28;4937598;28;45517;-46
2022/01/09 10:37:32;;;;;;;;;6.40;1.60;;;;;7.05;72.14;99972.75;4956144;28;47090;-46
2022/01/09 10:39:58;;;;;;;;;2.75;0.50;;;;;7.14;72.70;99987.88;4974087;28;45417;-47
2022/01/09 10:42:23;;;;;;;;;0.00;0.00;;;;;7.20;73.02;99983.44;4972696;28;45427;-51
2022/01/09 10:44:49;;;;;;;;;3.00;0.00;;;;;7.30;72.39;99978.44;4974177;28;45841;-48
2022/01/09 10:47:16;;;;;;;;;1.50;1.00;;;;;7.30;71.57;99975.72;4940082;28;46552;-49
2022/01/09 10:49:43;;;;;;;;;0.60;0.60;;;;;7.16;71.34;99944.00;4972236;28;45498;-51
2022/01/09 10:52:21;;;;;;;;;1.20;0.00;;;;;7.38;71.20;99979.28;4973966;28;45739;-49
2022/01/09 10:54:48;;;;;;;;;0.00;0.00;;;;;7.30;71.63;99970.25;4971425;28;45735;-48
2022/01/09 10:57:17;;;;;;;;;0.20;0.20;;;;;7.34;71.67;99989.78;4974106;28;45571;-44
2022/01/09 10:59:43;;;;;;;;;0.00;0.00;;;;;7.29;71.95;99995.88;4972999;28;45403;-47
2022/01/09 11:02:12;;;;;;;;;0.00;0.00;;;;;7.24;72.19;99990.19;4956289;28;45615;-47
2022/01/09 11:04:44;;;;;;;;;1.20;0.00;;;;;7.13;71.70;99991.66;4973490;28;45607;-48
2022/01/09 11:07:10;;;;;;;;;3.00;0.00;;;;;7.04;73.15;99998.34;4970761;28;45493;-47
2022/01/09 11:09:40;;;;;;;;;1.00;0.00;;;;;6.95;72.21;99997.72;4973033;28;45451;-49
2022/01/09 11:12:09;;;;;;;;;0.00;0.00;;;;;6.89;73.38;99988.44;4971620;28;45581;-46
2022/01/09 11:14:39;;;;;;;;;0.00;0.00;;;;;6.87;74.46;100006.91;4973870;28;45787;-48
2022/01/09 11:17:05;;;;;;;;;0.00;0.00;;;;;6.80;74.17;99992.41;4928071;28;46153;-48
2022/01/09 11:19:30;;;;;;;;;1.40;0.00;;;;;6.86;74.57;99996.19;4954203;28;45531;-48
2022/01/09 11:22:01;;;;;;;;;0.25;0.25;;;;;6.82;74.41;99990.31;4936797;28;45760;-50
2022/01/09 11:24:33;;;;;;;;;1.00;1.00;;;;;6.72;73.55;100003.53;4952570;28;45545;-49
2022/01/09 11:27:13;;;;;;;;;0.00;0.00;;;;;6.74;74.29;99998.69;4972351;28;45582;-50
2022/01/09 11:29:58;;;;;;;;;1.00;1.00;;;;;6.50;73.63;99965.44;4974688;28;45371;-53
2022/01/09 11:33:05;;;;;;;;;0.20;0.00;;;;;6.72;74.14;100007.06;4985301;28;45363;-46
2022/01/09 11:35:57;;;;;;;;;1.60;1.60;;;;;6.61;73.93;99994.88;4990710;28;45835;-47
2022/01/09 11:38:48;;;;;;;;;1.00;1.00;;;;;6.70;74.47;99997.41;4954678;28;45833;-47
2022/01/09 11:41:27;;;;;;;;;0.60;0.60;;;;;6.59;74.32;99956.06;4938924;28;45529;-51